Terminal Aerodrome Forecast
Issued by NWS

Home | Current Version | Previous Version | Text Only | Print | Product List | Glossary On
Versions: 1 2 3 4 5 6 7 8 9 10 11 12 13 14 15 16 17 18 19 20 21 22 23 24 25 26 27 28
507
FTUS41 KBTV 260531
TAFPBG
TAF
KPBG 260531Z 2606/2706 00000KT P6SM SKC
      TEMPO 2608/2611 3SM BR
     FM261400 15006KT P6SM SKC
     FM262100 17009G15KT P6SM SCT070 BKN110
     FM270200 19004KT P6SM VCSH OVC060=

USA.gov is the U.S. government's official web portal to all federal, state and local government web resources and services.